Bookmark and Share
Track history (hours):
 

Amagi Galaxy

Last reported at 2014-Apr-23 09:33 UTC. Time now 2014-Apr-23 09:51 UTC.
Position N 46°06' W 122°58'.

Length 152 m; draft 7.1 m.

Type: Ship (hazmat cat B). MMSI: 538004105.

NotesDate/timePositionNaut miles runAvg speedWind from/ knotsBaromVisibWave heightAir tempDewpointWater temp
2014-Apr-23 09:33N 46°06' W 122°58'10 9.9
2014-Apr-23 08:32N 46°11' W 123°10'10 9.8
2014-Apr-23 07:33N 46°10' W 123°24'8 8.2
2014-Apr-23 06:33N 46°16' W 123°32'1111.2
2014-Apr-23 05:33N 46°13' W 123°47'9 9.1
2014-Apr-23 04:33N 46°15' W 124°00'1110.8
2014-Apr-23 03:33N 46°10' W 124°14'1111.1
2014-Apr-23 02:33N 46°07' W 124°29'1413.8
2014-Apr-23 01:33N 46°03' W 124°49'1414.0
2014-Apr-23 00:33N 45°59' W 125°08'1413.8
2014-Apr-22 23:30N 45°56' W 125°28'41811.8
2014-Apr-21 12:05N 38°59' W 125°03'711.7
2014-Apr-21 11:32N 38°54' W 124°57'1111.6
2014-Apr-21 10:33N 38°46' W 124°47'1211.4
2014-Apr-21 09:31N 38°37' W 124°36'1111.4
2014-Apr-21 08:33N 38°29' W 124°27'1211.7
2014-Apr-21 07:33N 38°21' W 124°17'1111.3
2014-Apr-21 06:33N 38°13' W 124°07'1111.2
2014-Apr-21 05:33N 38°04' W 123°57'1111.1
2014-Apr-21 04:33N 37°56' W 123°48'1110.5
2014-Apr-21 03:33N 37°49' W 123°39'1010.5
2014-Apr-21 02:33N 37°44' W 123°27'9 9.3
2014-Apr-21 01:33N 37°39' W 123°17'9 9.2
2014-Apr-21 00:33N 37°35' W 123°06'1010.3
2014-Apr-20 23:33N 37°39' W 122°54'1111.1
2014-Apr-20 22:33N 37°44' W 122°42'9 9.2
2014-Apr-20 21:33N 37°48' W 122°32'9 8.8
2014-Apr-20 20:33N 37°55' W 122°25'2 2.3
2014-Apr-20 19:33N 37°55' W 122°22'0 0.0
2014-Apr-20 08:04N 37°55' W 122°22'0 0.7
2014-Apr-20 07:33N 37°55' W 122°22'0 0.0
2014-Apr-20 05:04N 37°55' W 122°22'0 0.0
2014-Apr-20 03:28N 37°55' W 122°22'0 0.0
2014-Apr-20 02:22N 37°55' W 122°22'0 0.0
2014-Apr-20 01:22N 37°55' W 122°22'0 0.0
2014-Apr-19 23:16N 37°55' W 122°22'0 0.0
2014-Apr-19 22:10N 37°55' W 122°22'0 0.0
2014-Apr-19 21:04N 37°55' W 122°22'0 0.0
2014-Apr-19 18:13N 37°55' W 122°22'0 0.0
2014-Apr-19 17:28N 37°55' W 122°22'0 0.0
2014-Apr-19 15:22N 37°55' W 122°22'0 0.0
2014-Apr-19 12:31N 37°55' W 122°22'0 0.0
2014-Apr-19 10:16N 37°55' W 122°22'0 0.0
2014-Apr-19 08:33N 37°55' W 122°22'3 2.7
2014-Apr-19 07:34N 37°55' W 122°25'1010.3
2014-Apr-19 06:33N 37°47' W 122°34'1110.9
2014-Apr-19 05:34N 37°42' W 122°45'1312.6
2014-Apr-19 04:33N 37°34' W 122°58'1110.9
2014-Apr-19 03:33N 37°26' W 123°08'1212.2
2014-Apr-19 02:33N 37°16' W 123°17'1312.6
2014-Apr-19 01:33N 37°06' W 123°25'1212.5
2014-Apr-19 00:33N 36°53' W 123°26'1312.7
2014-Apr-18 23:33N 36°42' W 123°20'1312.5
2014-Apr-18 22:33N 36°30' W 123°13'1812.4
2014-Apr-18 21:05N 36°14' W 123°04'712.3
2014-Apr-18 20:32N 36°07' W 123°00'1212.3
2014-Apr-18 19:34N 35°57' W 122°54'1212.3
2014-Apr-18 18:33N 35°45' W 122°48'1212.3
2014-Apr-18 17:33N 35°34' W 122°42'1312.6
2014-Apr-18 16:33N 35°22' W 122°35'1312.2
2014-Apr-18 15:28N 35°10' W 122°28'1111.8
2014-Apr-18 14:31N 35°00' W 122°23'1311.5
2014-Apr-18 13:25N 34°49' W 122°17'1011.6
2014-Apr-18 12:31N 34°39' W 122°12'19911.0
2014-Apr-17 18:26N 33°35' W 118°24'910.8
2014-Apr-17 17:33N 33°38' W 118°13'8 0.3
2014-Apr-16 15:33N 33°46' W 118°13'2 1.5
2014-Apr-16 14:15N 33°44' W 118°14'0 0.0
2014-Apr-16 13:12N 33°44' W 118°14'0 0.0
2014-Apr-16 12:33N 33°44' W 118°14'0 0.0
2014-Apr-16 11:33N 33°44' W 118°14'0 0.0
2014-Apr-16 10:33N 33°44' W 118°14'0 0.1
2014-Apr-16 09:33N 33°44' W 118°14'0 0.1
2014-Apr-16 08:33N 33°44' W 118°14'0 0.1
2014-Apr-16 07:33N 33°44' W 118°14'0 0.0
2014-Apr-16 06:33N 33°44' W 118°14'0 0.1
2014-Apr-16 05:33N 33°44' W 118°14'0 0.1
2014-Apr-16 04:33N 33°44' W 118°14'0 0.0
2014-Apr-16 03:33N 33°44' W 118°14'0 0.1
2014-Apr-16 02:33N 33°44' W 118°14'0 0.0
2014-Apr-16 01:33N 33°44' W 118°13'0 0.0
2014-Apr-16 00:33N 33°44' W 118°13'0 0.0
2014-Apr-15 23:33N 33°44' W 118°13'0 0.0
2014-Apr-15 22:33N 33°44' W 118°13'0 0.0
2014-Apr-15 21:33N 33°44' W 118°13'0 0.0
2014-Apr-15 20:33N 33°44' W 118°13'0 0.1
2014-Apr-15 19:33N 33°44' W 118°13'0 0.0
2014-Apr-15 18:33N 33°44' W 118°13'0 0.0
2014-Apr-15 17:33N 33°44' W 118°13'0 0.1
2014-Apr-15 16:27N 33°44' W 118°13'0 0.1
2014-Apr-15 15:33N 33°44' W 118°13'0 0.1
2014-Apr-15 14:33N 33°44' W 118°14'0 0.0
2014-Apr-15 12:30N 33°44' W 118°14'0 0.0
2014-Apr-15 11:33N 33°44' W 118°14'0 0.1
2014-Apr-15 10:33N 33°44' W 118°13'0 0.1
2014-Apr-15 09:33N 33°44' W 118°13'0 0.1
2014-Apr-15 08:33N 33°44' W 118°14'0 0.1
2014-Apr-15 07:33N 33°44' W 118°14'0 0.0
2014-Apr-15 06:33N 33°44' W 118°14'0 0.0
2014-Apr-15 05:33N 33°44' W 118°14'0 0.0
2014-Apr-15 03:33N 33°44' W 118°14'0 0.0
2014-Apr-15 02:33N 33°44' W 118°14'0 0.1
2014-Apr-15 01:33N 33°44' W 118°14'0 0.1
2014-Apr-15 00:33N 33°44' W 118°14'0 0.1
2014-Apr-14 23:33N 33°44' W 118°14'0 0.0
2014-Apr-14 22:33N 33°44' W 118°13'0 0.0
2014-Apr-14 21:33N 33°44' W 118°13'0 0.1
2014-Apr-14 20:33N 33°44' W 118°13'0 0.1
2014-Apr-14 19:33N 33°44' W 118°13'0 0.1
2014-Apr-14 18:33N 33°44' W 118°13'0 0.0
2014-Apr-14 16:33N 33°44' W 118°13'0 0.1
2014-Apr-14 15:33N 33°44' W 118°14'  

Dump ship's entire track history

sailing weather and tide predictions

Amagi Galaxy — V7VE9 — position and weather